Time;durP1;ratioP1;P1;durP2;ratioP2;P2;SDS_P1;SDS_P2;PMS_P1;PMS_P2;Temp;Humidity;BMP_temperature;BMP_pressure;BME280_temperature;BME280_humidity;BME280_pressure;Samples;Min_cycle;Max_cycle;Signal;HPM_P1;HPM_P2
2021/03/26 00:01:16;;;;;;;20.67;14.60;;;;;;;1.87;68.70;101212.81;5043123;28;20017;-78
2021/03/26 00:03:43;;;;;;;22.30;13.60;;;;;;;1.72;68.67;101198.06;5045923;28;20491;-77
2021/03/26 00:06:13;;;;;;;21.50;14.47;;;;;;;1.70;69.48;101206.31;5048608;28;20037;-78
2021/03/26 00:08:39;;;;;;;18.80;12.43;;;;;;;1.56;69.35;101195.00;5052846;28;20029;-79
2021/03/26 00:11:05;;;;;;;22.27;14.03;;;;;;;1.42;69.91;101187.06;5053207;28;20032;-81
2021/03/26 00:13:32;;;;;;;16.67;11.73;;;;;;;1.43;69.38;101191.41;5053400;28;20029;-81
2021/03/26 00:15:58;;;;;;;16.13;10.73;;;;;;;0.81;69.80;101126.75;5052946;28;20402;-79
2021/03/26 00:18:23;;;;;;;13.53;9.47;;;;;;;1.14;69.62;101193.97;5051519;28;20025;-79
2021/03/26 00:20:49;;;;;;;12.57;9.13;;;;;;;0.78;70.46;101185.81;5052870;28;20024;-79
2021/03/26 00:23:14;;;;;;;15.63;10.03;;;;;;;0.76;71.08;101211.84;5051511;28;20475;-82
2021/03/26 00:25:40;;;;;;;13.53;9.67;;;;;;;0.53;71.68;101212.38;5052673;28;20112;-77
2021/03/26 00:28:06;;;;;;;13.00;8.83;;;;;;;0.27;72.32;101210.94;5053020;28;20552;-79
2021/03/26 00:30:32;;;;;;;14.17;8.47;;;;;;;0.12;72.30;101205.34;5052701;28;20063;-77
2021/03/26 00:32:59;;;;;;;13.90;9.57;;;;;;;-0.18;73.37;101204.34;5034662;28;20032;-79
2021/03/26 00:35:26;;;;;;;13.10;8.87;;;;;;;-0.28;74.17;101202.59;5051412;28;20033;-77
2021/03/26 00:37:52;;;;;;;14.53;9.83;;;;;;;-0.12;73.78;101197.28;5052311;28;20032;-77
2021/03/26 00:40:19;;;;;;;16.07;9.83;;;;;;;-0.22;73.50;101187.94;5052691;28;20025;-83
2021/03/26 00:42:45;;;;;;;15.13;9.57;;;;;;;-0.56;75.08;101209.28;5052692;28;20051;-83
2021/03/26 00:45:16;;;;;;;12.23;8.33;;;;;;;-0.54;75.23;101190.06;5052752;28;20461;-80
2021/03/26 00:47:41;;;;;;;13.40;8.93;;;;;;;-0.33;74.40;101203.84;5052581;28;20036;-78
2021/03/26 00:50:18;;;;;;;16.43;9.43;;;;;;;-0.18;73.91;101205.22;5052732;28;20027;-82
2021/03/26 00:52:44;;;;;;;15.77;9.77;;;;;;;-0.50;74.44;101170.19;5051208;28;20116;-81
2021/03/26 00:55:10;;;;;;;14.93;9.87;;;;;;;-0.84;74.78;101128.13;5052543;28;20120;-80
2021/03/26 00:57:36;;;;;;;14.87;10.07;;;;;;;-0.27;74.37;101193.38;5052224;28;20556;-78
2021/03/26 01:00:02;;;;;;;14.50;10.27;;;;;;;-0.09;73.65;101189.06;5050065;28;20025;-78
2021/03/26 01:02:28;;;;;;;16.00;10.10;;;;;;;0.00;73.45;101205.16;5050271;28;20021;-80
2021/03/26 01:04:53;;;;;;;15.47;10.47;;;;;;;-0.14;72.90;101167.47;5050669;28;20114;-75
2021/03/26 01:07:19;;;;;;;20.60;13.00;;;;;;;-0.26;73.01;101146.91;5052701;28;20502;-77
2021/03/26 01:09:44;;;;;;;18.53;12.33;;;;;;;-0.21;72.48;101138.09;5049218;28;20024;-76
2021/03/26 01:12:10;;;;;;;19.67;12.90;;;;;;;0.27;72.36;101206.72;5052536;28;20099;-77
2021/03/26 01:14:36;;;;;;;16.23;11.33;;;;;;;0.06;71.33;101132.06;5038162;28;20037;-72
2021/03/26 01:17:02;;;;;;;16.17;10.80;;;;;;;0.43;71.02;101180.19;5046003;28;20025;-77
2021/03/26 01:19:28;;;;;;;16.90;11.77;;;;;;;0.64;70.76;101197.31;5050415;28;20029;-79
2021/03/26 01:21:53;;;;;;;20.17;11.73;;;;;;;0.69;70.64;101197.72;5050923;28;20028;-79
2021/03/26 01:24:19;;;;;;;19.03;12.27;;;;;;;0.66;70.37;101204.19;5050899;28;20025;-82
2021/03/26 01:26:45;;;;;;;19.00;11.73;;;;;;;0.70;69.71;101202.06;5051930;28;20025;-76
2021/03/26 01:29:11;;;;;;;17.23;10.77;;;;;;;0.44;69.13;101154.91;5051704;28;20379;-78
2021/03/26 01:31:38;;;;;;;19.63;11.50;;;;;;;0.78;69.19;101197.63;5050582;28;20487;-79
2021/03/26 01:34:04;;;;;;;17.30;11.93;;;;;;;0.80;68.99;101199.56;5049335;28;20028;-80
2021/03/26 01:36:31;;;;;;;19.33;11.63;;;;;;;0.47;69.18;101145.03;5050401;28;20483;-81
2021/03/26 01:38:56;;;;;;;17.73;10.63;;;;;;;0.56;69.25;101171.97;5049797;28;20029;-82
2021/03/26 01:41:25;;;;;;;15.83;11.17;;;;;;;0.22;69.16;101141.06;5050303;28;20028;-78
2021/03/26 01:43:51;;;;;;;16.47;12.03;;;;;;;0.45;69.55;101210.03;5051663;28;20105;-85
2021/03/26 01:46:17;;;;;;;20.70;13.63;;;;;;;0.07;70.46;101163.44;5051662;28;20032;-79
2021/03/26 01:48:46;;;;;;;18.13;12.97;;;;;;;0.41;70.71;101212.16;5051291;28;20037;-77
2021/03/26 01:51:22;;;;;;;17.98;13.52;;;;;;;0.50;70.69;101212.09;5051716;28;20430;-80
2021/03/26 01:53:48;;;;;;;18.90;12.37;;;;;;;0.60;70.72;101217.25;5050218;28;20037;-81
2021/03/26 01:56:14;;;;;;;18.17;11.67;;;;;;;0.56;70.76;101217.72;5050875;28;20074;-78
2021/03/26 01:58:40;;;;;;;21.23;13.00;;;;;;;0.33;71.74;101201.31;5050085;28;20045;-77
2021/03/26 02:01:12;;;;;;;18.10;12.70;;;;;;;0.29;71.90;101225.53;5050057;28;20028;-77
2021/03/26 02:03:43;;;;;;;18.37;12.63;;;;;;;0.17;72.71;101218.47;5050301;28;20153;-77
2021/03/26 02:06:30;;;;;;;16.27;11.90;;;;;;;0.28;72.97;101235.56;5049876;28;20099;-78
2021/03/26 02:09:16;;;;;;;17.97;12.17;;;;;;;0.27;72.65;101234.66;5049158;28;20044;-78
2021/03/26 02:11:51;;;;;;;18.30;12.40;;;;;;;0.24;72.45;101220.81;5049324;28;20685;-78
2021/03/26 02:14:21;;;;;;;17.13;12.07;;;;;;;0.18;71.82;101221.16;5032184;28;20110;-78
2021/03/26 02:16:48;;;;;;;18.73;12.07;;;;;;;0.26;71.53;101226.91;5048960;28;20150;-78
2021/03/26 02:19:24;;;;;;;20.40;12.40;;;;;;;0.37;71.80;101238.94;5032234;28;20551;-78
2021/03/26 02:21:51;;;;;;;17.40;12.10;;;;;;;0.33;71.29;101229.25;5048870;28;20128;-79
2021/03/26 02:24:16;;;;;;;16.90;12.13;;;;;;;0.37;71.53;101241.47;5032321;28;20037;-78
2021/03/26 02:26:47;;;;;;;22.70;12.90;;;;;;;0.35;72.16;101237.91;5048794;28;20025;-78
2021/03/26 02:29:24;;;;;;;18.27;12.77;;;;;;;0.30;72.11;101236.63;5048365;28;20138;-78
2021/03/26 02:32:08;;;;;;;19.37;13.17;;;;;;;0.26;72.22;101239.59;5048325;28;20487;-78
2021/03/26 02:34:33;;;;;;;15.50;11.97;;;;;;;0.02;72.15;101210.34;5048301;28;20061;-84
2021/03/26 02:37:06;;;;;;;17.83;11.80;;;;;;;0.17;71.52;101246.41;5049123;28;20067;-79
2021/03/26 02:39:39;;;;;;;14.97;11.20;;;;;;;0.03;71.41;101245.16;5048983;28;20495;-77
2021/03/26 02:42:19;;;;;;;16.73;11.47;;;;;;;0.00;71.31;101240.69;5050115;28;20442;-77
2021/03/26 02:44:58;;;;;;;16.33;10.73;;;;;;;-0.03;71.63;101246.34;5049815;28;20032;-78
2021/03/26 02:47:34;;;;;;;17.33;11.47;;;;;;;-0.01;71.55;101246.50;5049894;28;20036;-81
2021/03/26 02:50:15;;;;;;;15.57;10.40;;;;;;;-0.15;71.34;101262.09;5049339;28;20033;-82
2021/03/26 02:52:56;;;;;;;16.57;10.80;;;;;;;-0.45;71.95;101254.31;5049891;28;20033;-78
2021/03/26 02:56:06;;;;;;;17.20;11.30;;;;;;;-0.52;73.12;101249.44;5049295;28;20083;-78
2021/03/26 02:58:39;;;;;;;15.70;10.43;;;;;;;-0.58;72.98;101254.81;5011787;28;20026;-76
2021/03/26 03:01:37;;;;;;;16.20;11.10;;;;;;;-0.69;73.11;101261.41;5011707;28;20152;-77
2021/03/26 03:04:15;;;;;;;17.13;11.10;;;;;;;-1.09;73.58;101180.69;5027924;28;20060;-76
2021/03/26 03:06:48;;;;;;;16.40;11.33;;;;;;;-0.88;73.17;101200.47;5017276;28;20462;-77
2021/03/26 03:09:16;;;;;;;15.73;10.63;;;;;;;-0.55;73.53;101262.72;5028276;28;20068;-79
2021/03/26 03:11:50;;;;;;;16.70;10.63;;;;;;;-0.39;73.25;101261.59;5016157;28;20063;-77
2021/03/26 03:14:22;;;;;;;15.73;10.93;;;;;;;-0.38;73.00;101248.19;5012809;28;20033;-77
2021/03/26 03:16:54;;;;;;;16.30;11.00;;;;;;;-0.24;72.70;101262.16;5023760;28;20037;-77
2021/03/26 03:19:29;;;;;;;17.03;10.90;;;;;;;-0.35;72.63;101262.06;5011550;28;20557;-77
2021/03/26 03:22:01;;;;;;;16.97;12.17;;;;;;;-0.59;73.38;101244.53;5011905;28;20553;-80
2021/03/26 03:24:39;;;;;;;17.90;11.37;;;;;;;-0.79;72.78;101197.91;5022657;28;20033;-76
2021/03/26 03:27:08;;;;;;;16.87;10.83;;;;;;;-0.46;72.96;101262.69;5016993;28;20041;-76
2021/03/26 03:29:49;;;;;;;17.98;11.13;;;;;;;-0.45;73.40;101268.66;5028275;28;20025;-77
2021/03/26 03:32:14;;;;;;;15.73;10.93;;;;;;;-0.40;73.30;101267.44;5026997;28;20079;-77
2021/03/26 03:34:44;;;;;;;15.50;11.10;;;;;;;-0.47;72.95;101240.59;5050346;28;20025;-77
2021/03/26 03:37:35;;;;;;;17.10;10.33;;;;;;;-0.35;72.58;101274.75;5049716;28;20072;-78
2021/03/26 03:40:26;;;;;;;16.67;11.00;;;;;;;-0.40;72.50;101277.56;5050123;28;20536;-77
2021/03/26 03:43:11;;;;;;;16.70;10.50;;;;;;;-0.55;73.01;101261.81;5053169;28;20025;-77
2021/03/26 03:45:45;;;;;;;18.23;11.00;;;;;;;-0.57;73.07;101289.56;5053366;28;20027;-77
2021/03/26 03:48:52;;;;;;;18.73;11.60;;;;;;;-0.71;73.52;101288.28;5053076;28;20035;-78
2021/03/26 03:51:23;;;;;;;20.07;12.97;;;;;;;-0.84;73.88;101292.91;5032115;28;20622;-78
2021/03/26 03:53:59;;;;;;;20.53;13.30;;;;;;;-1.07;74.43;101280.56;5030266;28;20443;-76
2021/03/26 03:56:38;;;;;;;18.60;13.20;;;;;;;-1.10;74.96;101291.28;5031813;28;20040;-82
2021/03/26 03:59:13;;;;;;;20.23;12.63;;;;;;;-1.11;75.43;101301.28;5031353;28;20034;-81
2021/03/26 04:02:20;;;;;;;16.73;11.13;;;;;;;-1.17;75.50;101296.53;5032024;28;20033;-75
2021/03/26 04:04:54;;;;;;;16.10;11.23;;;;;;;-1.28;75.78;101299.63;5014799;28;20045;-77
2021/03/26 04:07:39;;;;;;;17.57;10.90;;;;;;;-1.61;76.16;101227.22;5031761;28;20045;-77
2021/03/26 04:10:12;;;;;;;17.40;11.40;;;;;;;-1.27;76.03;101286.22;5015369;28;20187;-78
2021/03/26 04:12:41;;;;;;;17.30;11.67;;;;;;;-1.31;76.08;101287.56;5015276;28;20124;-77
2021/03/26 04:15:19;;;;;;;17.42;11.40;;;;;;;-1.35;76.26;101303.22;5028608;28;20045;-77
2021/03/26 04:17:54;;;;;;;16.70;11.83;;;;;;;-1.47;77.11;101300.34;5015445;28;20040;-77
2021/03/26 04:20:32;;;;;;;18.07;11.03;;;;;;;-1.48;77.07;101303.66;5030153;28;20037;-77
2021/03/26 04:23:04;;;;;;;21.50;12.87;;;;;;;-1.32;77.45;101321.25;5015439;28;20495;-77
2021/03/26 04:25:33;;;;;;;24.83;14.67;;;;;;;-1.45;77.57;101303.94;5015597;28;20060;-77
2021/03/26 04:28:20;;;;;;;;;;;;;;;-1.26;77.53;101324.38;5032632;28;20107;-77
2021/03/26 04:31:02;;;;;;;21.83;13.43;;;;;;;-1.27;77.32;101309.03;5032695;28;19949;-77
2021/03/26 04:33:28;;;;;;;19.00;11.93;;;;;;;-1.17;77.38;101315.16;5034241;28;20033;-77
2021/03/26 04:35:56;;;;;;;16.27;11.30;;;;;;;-1.20;77.35;101306.34;5032798;28;20034;-77
2021/03/26 04:38:31;;;;;;;17.10;11.27;;;;;;;-1.16;77.25;101319.47;5032821;28;20659;-77
2021/03/26 04:41:01;;;;;;;19.27;12.77;;;;;;;-1.18;77.08;101317.53;5033888;28;20021;-77
2021/03/26 04:43:30;;;;;;;17.10;11.90;;;;;;;-1.17;77.33;101319.34;5032415;28;20044;-78
2021/03/26 04:46:38;;;;;;;19.43;11.60;;;;;;;-1.26;77.98;101324.38;5032586;28;20469;-76
2021/03/26 04:49:36;;;;;;;17.33;11.77;;;;;;;-1.16;77.80;101328.69;5032725;28;20151;-77
2021/03/26 04:52:26;;;;;;;20.47;12.57;;;;;;;-1.14;77.99;101322.16;5031735;28;20079;-77
2021/03/26 04:54:56;;;;;;;19.27;11.90;;;;;;;-1.24;77.73;101320.34;5033793;28;20040;-77
2021/03/26 04:57:28;;;;;;;28.13;18.87;;;;;;;-1.36;78.30;101309.94;5035798;28;20052;-77
2021/03/26 05:00:00;;;;;;;24.87;16.90;;;;;;;-1.32;78.56;101326.34;5014856;28;20470;-77
2021/03/26 05:02:28;;;;;;;21.20;14.33;;;;;;;-1.35;78.72;101319.28;5049899;28;20127;-77
2021/03/26 05:04:55;;;;;;;21.33;13.13;;;;;;;-1.36;78.47;101320.06;5051131;28;20053;-77
2021/03/26 05:07:32;;;;;;;22.63;13.80;;;;;;;-1.24;78.45;101333.03;5051293;28;20044;-77
2021/03/26 05:10:02;;;;;;;21.77;13.07;;;;;;;-1.23;78.52;101328.88;5034380;28;20494;-76
2021/03/26 05:12:32;;;;;;;26.23;15.77;;;;;;;-1.40;78.59;101299.34;5051213;28;20064;-77
2021/03/26 05:15:17;;;;;;;49.73;30.47;;;;;;;-1.05;78.71;101342.44;5050897;28;20056;-77
2021/03/26 05:17:42;;;;;;;108.63;60.03;;;;;;;-1.00;78.17;101334.53;5050992;28;20049;-77
2021/03/26 05:20:18;;;;;;;88.60;50.97;;;;;;;-1.23;77.91;101281.63;5050459;28;20509;-77
2021/03/26 05:22:52;;;;;;;72.03;37.97;;;;;;;-0.79;77.29;101329.72;5050139;28;20041;-78
2021/03/26 05:25:28;;;;;;;77.17;38.33;;;;;;;-0.62;76.50;101333.91;5050997;28;20052;-77
2021/03/26 05:27:54;;;;;;;65.13;36.77;;;;;;;-0.57;76.42;101332.69;5044728;28;20084;-77
2021/03/26 05:30:29;;;;;;;45.23;28.40;;;;;;;-0.56;76.40;101337.03;5013167;28;20477;-76
2021/03/26 05:33:01;;;;;;;31.90;20.70;;;;;;;-0.86;77.18;101338.41;5011589;28;20558;-76
2021/03/26 05:35:58;;;;;;;30.60;21.00;;;;;;;-0.62;77.84;101351.66;5011758;28;20045;-79
2021/03/26 05:38:32;;;;;;;25.20;16.13;;;;;;;-0.58;77.64;101343.56;4952385;29;20102;-76
2021/03/26 05:41:14;;;;;;;23.83;15.83;;;;;;;-0.57;77.50;101344.50;4936203;29;20031;-77
2021/03/26 05:44:14;;;;;;;22.27;14.27;;;;;;;-0.42;77.47;101353.56;4935981;29;20047;-77
2021/03/26 05:47:00;;;;;;;19.60;13.53;;;;;;;-0.40;77.60;101348.59;4936051;29;20105;-77
2021/03/26 05:49:56;;;;;;;26.07;17.17;;;;;;;-0.35;77.93;101357.56;4936242;29;20054;-80
2021/03/26 05:52:46;;;;;;;55.33;31.90;;;;;;;-0.26;78.38;101357.53;4935953;29;20042;-78
2021/03/26 05:55:26;;;;;;;40.87;24.33;;;;;;;-0.17;79.18;101356.75;4935985;29;20134;-76
2021/03/26 05:58:20;;;;;;;22.67;14.07;;;;;;;-0.05;77.96;101358.66;4946328;28;20070;-77
2021/03/26 06:01:16;;;;;;;19.27;13.00;;;;;;;-0.05;78.33;101367.19;4954540;28;20125;-78
2021/03/26 06:03:41;;;;;;;19.17;13.03;;;;;;;0.06;78.86;101362.19;4953636;28;20039;-77
2021/03/26 06:06:28;;;;;;;20.83;14.03;;;;;;;0.15;79.04;101365.63;4977884;28;20521;-77
2021/03/26 06:09:15;;;;;;;25.43;16.07;;;;;;;0.30;79.27;101367.03;4970809;28;20057;-80
2021/03/26 06:12:10;;;;;;;19.80;13.70;;;;;;;0.31;78.42;101347.59;4954915;28;20034;-80
2021/03/26 06:14:54;;;;;;;38.97;21.00;;;;;;;0.47;78.84;101368.59;4968507;28;20038;-79
2021/03/26 06:17:41;;;;;;;25.00;16.97;;;;;;;0.57;78.62;101364.34;5010685;28;20037;-79
2021/03/26 06:20:34;;;;;;;25.67;15.20;;;;;;;0.58;78.62;101361.03;5012261;28;20614;-80
2021/03/26 06:23:11;;;;;;;24.53;14.70;;;;;;;0.24;78.72;101302.09;5010867;28;20124;-79
2021/03/26 06:25:50;;;;;;;20.47;14.47;;;;;;;0.70;79.16;101366.34;5010895;28;20038;-79
2021/03/26 06:28:32;;;;;;;22.38;13.68;;;;;;;0.93;78.08;101365.88;5032709;28;20073;-79
2021/03/26 06:31:24;;;;;;;22.07;14.27;;;;;;;0.94;77.88;101370.22;5023655;28;20042;-79
2021/03/26 06:34:17;;;;;;;22.33;14.23;;;;;;;1.11;77.04;101372.63;5022449;28;20468;-80
2021/03/26 06:37:10;;;;;;;34.17;18.03;;;;;;;0.91;77.88;101296.19;5021572;28;20042;-80
2021/03/26 06:39:55;;;;;;;23.30;14.07;;;;;;;1.48;77.56;101371.56;5021124;28;20075;-78
2021/03/26 06:42:42;;;;;;;21.97;13.67;;;;;;;1.64;76.43;101368.72;5045916;28;20033;-81
2021/03/26 06:45:45;;;;;;;20.60;13.27;;;;;;;1.87;76.14;101371.59;5021020;28;20033;-79
2021/03/26 06:48:21;;;;;;;20.47;13.60;;;;;;;2.04;76.08;101377.22;5045980;28;20025;-79
2021/03/26 06:51:06;;;;;;;20.73;14.33;;;;;;;2.22;76.72;101373.72;5019089;28;20426;-80
2021/03/26 06:53:57;;;;;;;20.87;13.43;;;;;;;2.42;76.02;101377.94;5010370;28;20542;-79
2021/03/26 06:56:43;;;;;;;17.30;12.73;;;;;;;2.30;76.24;101315.75;5012189;28;20048;-80
2021/03/26 06:59:19;;;;;;;19.17;13.60;;;;;;;2.84;76.58;101373.75;5013902;28;20040;-80
2021/03/26 07:02:19;;;;;;;21.00;13.53;;;;;;;3.11;76.65;101370.78;5030107;28;20045;-80
2021/03/26 07:05:13;;;;;;;18.23;13.07;;;;;;;3.34;75.91;101371.00;4992687;28;20089;-80
2021/03/26 07:07:53;;;;;;;25.37;16.73;;;;;;;2.98;74.98;101257.56;4992937;28;20042;-81
2021/03/26 07:10:43;;;;;;;51.47;30.20;;;;;;;3.71;73.33;101363.72;4992714;28;20496;-80
2021/03/26 07:13:23;;;;;;;104.67;54.20;;;;;;;3.68;71.98;101343.03;4992842;28;20026;-81
2021/03/26 07:15:49;;;;;;;21.83;14.77;;;;;;;3.73;71.54;101316.19;4992371;28;20497;-80
2021/03/26 07:18:45;;;;;;;56.20;42.40;;;;;;;3.59;68.46;101258.06;4992783;28;20041;-80
2021/03/26 07:21:18;;;;;;;20.30;13.15;;;;;;;4.47;67.42;101366.94;4992809;28;20034;-80
2021/03/26 07:23:47;;;;;;;17.58;11.82;;;;;;;4.62;64.09;101364.69;4989113;28;20034;-80
2021/03/26 07:26:19;;;;;;;17.20;9.45;;;;;;;4.78;62.50;101360.72;4973011;28;20040;-80
2021/03/26 07:32:05;;;;;;;13.23;8.48;;;;;;;4.99;61.56;101369.97;4989439;28;20067;-81
2021/03/26 07:34:58;;;;;;;16.45;9.38;;;;;;;4.73;61.02;101316.00;4972638;28;20097;-80
2021/03/26 07:38:05;;;;;;;12.80;8.40;;;;;;;5.13;61.21;101376.09;4972385;28;20050;-81
2021/03/26 07:40:52;;;;;;;13.07;8.35;;;;;;;5.24;61.54;101379.47;4919050;29;20044;-81
2021/03/26 07:44:05;;;;;;;14.63;9.40;;;;;;;5.42;62.79;101379.91;4893570;29;20388;-82
2021/03/26 07:47:06;;;;;;;13.68;8.55;;;;;;;5.60;61.42;101377.78;4896178;29;20549;-81
2021/03/26 07:49:55;;;;;;;17.13;9.07;;;;;;;5.70;59.84;101373.31;4896590;29;20491;-81
2021/03/26 07:52:34;;;;;;;14.38;9.10;;;;;;;5.86;61.69;101365.94;4893732;29;20044;-80
2021/03/26 07:55:21;;;;;;;14.00;9.23;;;;;;;5.86;60.85;101381.31;4926523;29;20043;-81
2021/03/26 07:57:58;;;;;;;13.93;8.70;;;;;;;5.83;60.33;101355.44;4934128;29;20126;-81
2021/03/26 08:01:01;;;;;;;14.48;9.05;;;;;;;6.02;60.81;101385.88;4934268;29;20628;-81
2021/03/26 08:03:58;;;;;;;13.15;8.93;;;;;;;6.22;60.70;101382.13;4950048;29;20127;-82
2021/03/26 08:06:43;;;;;;;13.90;8.95;;;;;;;6.26;59.08;101384.13;4935742;28;20039;-81
2021/03/26 08:09:14;;;;;;;13.23;8.77;;;;;;;6.39;59.02;101387.53;4959692;28;20090;-82
2021/03/26 08:12:04;;;;;;;12.43;8.90;;;;;;;6.34;58.23;101373.50;4958799;28;20066;-82
2021/03/26 08:14:34;;;;;;;10.85;7.40;;;;;;;6.61;56.60;101383.06;4943749;28;20031;-81
2021/03/26 08:17:05;;;;;;;;;;;;;;;6.73;55.70;101385.59;4961994;28;20466;-82
2021/03/26 08:19:55;;;;;;;11.40;7.35;;;;;;;6.83;55.87;101384.53;4978114;28;19914;-81
2021/03/26 08:22:40;;;;;;;13.35;8.55;;;;;;;6.97;57.00;101364.91;4998704;28;20128;-85
2021/03/26 08:25:24;;;;;;;12.02;8.50;;;;;;;7.08;55.16;101386.16;4981096;28;20113;-82
2021/03/26 08:28:11;;;;;;;13.50;8.35;;;;;;;7.29;56.11;101382.41;4992885;28;20084;-80
2021/03/26 08:30:56;;;;;;;13.45;8.18;;;;;;;7.32;54.39;101385.97;4995065;28;20034;-80
2021/03/26 08:33:51;;;;;;;17.20;8.05;;;;;;;7.58;53.27;101374.81;4995198;28;20105;-79
2021/03/26 08:36:32;;;;;;;16.15;10.38;;;;;;;7.71;51.96;101376.47;4995431;28;20044;-82
2021/03/26 08:39:28;;;;;;;13.00;8.02;;;;;;;7.96;51.75;101373.72;4995014;28;20076;-83
2021/03/26 08:42:02;;;;;;;11.73;8.43;;;;;;;7.60;50.90;101301.25;4995224;28;20033;-87
2021/03/26 08:44:29;;;;;;;9.10;6.88;;;;;;;7.98;48.30;101350.72;4990863;28;20034;-78
2021/03/26 08:46:57;;;;;;;12.82;8.43;;;;;;;8.18;47.61;101363.09;4988907;28;20029;-84
2021/03/26 08:49:23;;;;;;;13.25;8.07;;;;;;;8.31;47.61;101345.81;4995124;28;20044;-79
2021/03/26 08:52:03;;;;;;;12.15;7.30;;;;;;;8.39;45.23;101319.75;4990923;28;20030;-84
2021/03/26 08:54:45;;;;;;;12.07;6.43;;;;;;;8.55;42.46;101372.19;5009659;28;20027;-79
2021/03/26 08:57:31;;;;;;;10.32;8.52;;;;;;;8.58;41.86;101373.28;5011122;28;20064;-86
2021/03/26 09:00:15;;;;;;;9.13;4.93;;;;;;;8.37;43.39;101311.09;4994969;28;20065;-85
2021/03/26 09:03:12;;;;;;;7.63;5.13;;;;;;;8.79;41.26;101370.16;5014549;28;20549;-77
2021/03/26 09:06:03;;;;;;;8.10;4.47;;;;;;;8.76;42.08;101371.66;5038880;28;20431;-79
2021/03/26 09:09:06;;;;;;;8.57;5.07;;;;;;;8.97;41.04;101362.63;5043410;28;20525;-81
2021/03/26 09:11:55;;;;;;;10.32;6.10;;;;;;;8.84;45.30;101357.56;5043465;28;20037;-78
2021/03/26 09:14:50;;;;;;;9.77;4.97;;;;;;;8.98;43.21;101366.97;4983962;28;20042;-85
2021/03/26 09:17:44;;;;;;;9.95;5.97;;;;;;;9.17;43.77;101368.94;4986399;28;20065;-88
2021/03/26 09:20:43;;;;;;;7.47;5.28;;;;;;;9.23;40.51;101365.78;4986900;28;20033;-91
2021/03/26 09:23:45;;;;;;;14.07;6.70;;;;;;;9.31;43.60;101355.91;4987698;28;20038;-83
2021/03/26 09:26:39;;;;;;;10.73;6.00;;;;;;;9.57;45.99;101361.66;4983967;28;20554;-82
2021/03/26 09:29:21;;;;;;;9.13;5.88;;;;;;;9.58;43.52;101338.53;4984479;28;20031;-85
2021/03/26 09:32:00;;;;;;;9.00;6.45;;;;;;;9.87;43.10;101367.63;4987105;28;20173;-86
2021/03/26 09:34:33;;;;;;;8.05;4.97;;;;;;;9.54;39.17;101362.38;4986680;28;20127;-86
2021/03/26 09:37:27;;;;;;;35.33;17.05;;;;;;;9.77;40.93;101344.69;5005078;28;20030;-82
2021/03/26 09:39:58;;;;;;;11.98;7.45;;;;;;;9.94;41.54;101353.34;5000560;28;20481;-87
2021/03/26 09:42:39;;;;;;;74.82;68.72;;;;;;;10.23;40.26;101352.31;4985351;28;20026;-83
2021/03/26 09:45:21;;;;;;;11.23;6.63;;;;;;;10.23;39.30;101356.59;4993646;28;20065;-85
2021/03/26 09:48:01;;;;;;;9.35;5.70;;;;;;;10.21;41.04;101353.94;4985381;28;20037;-82
2021/03/26 09:50:59;;;;;;;9.07;5.63;;;;;;;10.12;39.44;101349.16;4998746;28;20030;-79
2021/03/26 09:53:26;;;;;;;11.43;6.88;;;;;;;10.04;39.30;101346.19;5044041;28;20084;-79
2021/03/26 09:55:53;;;;;;;8.15;5.47;;;;;;;10.18;38.74;101346.91;5041907;28;20044;-87
2021/03/26 09:58:39;;;;;;;8.90;5.78;;;;;;;10.37;40.19;101355.66;5039800;28;20040;-88
2021/03/26 10:01:18;;;;;;;11.38;5.47;;;;;;;9.90;37.87;101334.25;5044905;28;20475;-88
2021/03/26 10:03:59;;;;;;;9.27;5.38;;;;;;;10.02;37.64;101300.47;5044312;28;20037;-83
2021/03/26 10:06:40;;;;;;;9.65;5.45;;;;;;;10.41;36.95;101331.78;5043839;28;20025;-87
2021/03/26 10:12:16;;;;;;;7.35;4.40;;;;;;;10.39;37.75;101323.03;5023821;28;20030;-89
2021/03/26 10:14:49;;;;;;;8.00;5.38;;;;;;;10.68;36.30;101334.88;5023144;28;20033;-89
2021/03/26 10:17:27;;;;;;;9.60;5.47;;;;;;;10.60;35.65;101348.19;5010183;28;20041;-86
2021/03/26 10:20:04;;;;;;;7.15;5.22;;;;;;;10.57;35.92;101328.28;5025710;28;20037;-88
2021/03/26 10:22:41;;;;;;;10.93;6.03;;;;;;;11.12;38.82;101343.03;5028418;28;20418;-84
2021/03/26 10:25:43;;;;;;;9.30;5.63;;;;;;;10.91;36.92;101342.88;5028058;28;20033;-85
2021/03/26 10:28:18;;;;;;;11.00;5.93;;;;;;;11.26;40.18;101345.41;5028491;28;20025;-84
2021/03/26 10:31:06;;;;;;;14.95;9.50;;;;;;;11.17;37.87;101351.91;5012347;28;20029;-84
2021/03/26 10:33:44;;;;;;;8.73;5.00;;;;;;;11.52;37.30;101340.63;5026369;28;20529;-83
2021/03/26 10:36:20;;;;;;;7.63;5.40;;;;;;;11.29;35.83;101299.91;5028506;28;20029;-82
2021/03/26 10:39:04;;;;;;;8.52;5.20;;;;;;;11.24;35.85;101332.44;5012412;28;20025;-84
2021/03/26 10:41:49;;;;;;;7.70;5.10;;;;;;;11.56;38.07;101329.59;5049656;28;20024;-85
2021/03/26 10:44:42;;;;;;;9.40;5.80;;;;;;;11.75;34.52;101334.81;5047969;28;20070;-82
2021/03/26 10:47:17;;;;;;;7.32;5.28;;;;;;;11.93;37.03;101328.69;5047626;28;20029;-88
2021/03/26 10:49:50;;;;;;;18.50;15.32;;;;;;;12.04;33.19;101306.81;5032065;28;20028;-83
2021/03/26 10:52:28;;;;;;;11.52;5.45;;;;;;;12.45;33.86;101328.44;5037052;28;20541;-88
2021/03/26 10:55:02;;;;;;;8.50;4.97;;;;;;;12.36;33.13;101325.47;5006106;28;20049;-85
2021/03/26 10:57:37;;;;;;;10.02;4.95;;;;;;;12.08;31.98;101321.63;5024181;28;20067;-84
2021/03/26 11:00:22;;;;;;;6.45;4.22;;;;;;;12.11;33.91;101319.22;4993870;28;20097;-85
2021/03/26 11:03:04;;;;;;;16.38;7.82;;;;;;;11.41;31.30;101268.56;5006081;28;20068;-83
2021/03/26 11:05:40;;;;;;;10.63;6.30;;;;;;;11.70;34.09;101322.47;5009137;28;20038;-83
2021/03/26 11:08:16;;;;;;;29.08;11.25;;;;;;;11.93;32.27;101303.69;4993260;28;20038;-84
2021/03/26 11:10:52;;;;;;;9.35;4.50;;;;;;;11.87;30.49;101312.91;5006310;28;20179;-85
2021/03/26 11:13:43;;;;;;;7.25;5.00;;;;;;;12.25;33.42;101306.84;5001066;28;20041;-87
2021/03/26 11:16:21;;;;;;;7.18;4.53;;;;;;;11.97;32.58;101272.00;4989662;28;20042;-85
2021/03/26 11:19:04;;;;;;;20.75;14.82;;;;;;;12.28;32.22;101311.28;5004552;28;20048;-86
2021/03/26 11:21:53;;;;;;;10.15;6.35;;;;;;;12.27;31.33;101287.13;4992554;28;20042;-85
2021/03/26 11:24:19;;;;;;;25.30;17.07;;;;;;;12.78;30.66;101301.28;4999167;28;20555;-85
2021/03/26 11:27:01;;;;;;;16.90;11.77;;;;;;;12.86;30.89;101286.06;4993931;28;20269;-87
2021/03/26 11:29:32;;;;;;;21.58;12.90;;;;;;;13.21;29.87;101291.78;4984366;28;20643;-74
2021/03/26 11:32:08;;;;;;;9.05;5.38;;;;;;;12.55;31.62;101297.75;4998741;28;20571;-75
2021/03/26 11:34:50;;;;;;;8.20;4.65;;;;;;;12.09;32.82;101195.72;4990161;28;20042;-80
2021/03/26 11:37:40;;;;;;;7.78;4.75;;;;;;;12.54;32.01;101285.63;5000131;28;20030;-77
2021/03/26 11:40:08;;;;;;;7.72;4.95;;;;;;;12.42;31.90;101271.34;5000946;28;20053;-78
2021/03/26 11:42:53;;;;;;;8.90;5.10;;;;;;;12.45;31.12;101287.00;5004461;28;20485;-80
2021/03/26 11:45:28;;;;;;;8.30;5.00;;;;;;;12.04;31.14;101280.91;5004636;28;20061;-77
2021/03/26 11:47:59;;;;;;;10.90;6.70;;;;;;;12.19;33.65;101285.00;5002291;28;20045;-82
2021/03/26 11:50:33;;;;;;;7.50;5.30;;;;;;;12.82;30.12;101272.09;4968234;28;20031;-86
2021/03/26 11:53:06;;;;;;;6.68;4.63;;;;;;;13.27;29.43;101264.38;4950796;28;20065;-86
2021/03/26 11:55:37;;;;;;;9.65;5.07;;;;;;;13.39;31.43;101263.13;4968579;28;20086;-85
2021/03/26 11:58:17;;;;;;;9.70;5.47;;;;;;;13.32;31.96;101253.28;4973003;28;20045;-85
2021/03/26 12:00:53;;;;;;;9.18;5.18;;;;;;;12.81;31.34;101269.44;4949417;28;20035;-83
2021/03/26 12:03:22;;;;;;;12.02;8.65;;;;;;;12.44;30.89;101263.63;4934974;29;20117;-83
2021/03/26 12:06:12;;;;;;;8.87;4.83;;;;;;;12.55;32.08;101261.50;4952688;29;20071;-84
2021/03/26 12:08:48;;;;;;;;;;;;;;;12.76;32.60;101259.78;4952262;29;20178;-82
2021/03/26 12:11:36;;;;;;;7.60;5.07;;;;;;;12.87;32.77;101259.31;4953133;29;19922;-82
2021/03/26 12:14:22;;;;;;;10.48;5.47;;;;;;;12.88;31.17;101255.91;4950468;28;20122;-82
2021/03/26 12:17:01;;;;;;;7.80;5.25;;;;;;;13.43;29.17;101249.44;4951245;29;20051;-84